sensor_id;sensor_type;location;lat;lon;timestamp;P1;durP1;ratioP1;P2;durP2;ratioP2
7051;SDS011;3567;52.444;13.556;2023-07-20T00:00:44;6.35;;;5.72;;
7051;SDS011;3567;52.444;13.556;2023-07-20T00:03:10;6.65;;;6.10;;
7051;SDS011;3567;52.444;13.556;2023-07-20T00:05:44;5.95;;;5.40;;
7051;SDS011;3567;52.444;13.556;2023-07-20T00:08:10;6.22;;;5.72;;
7051;SDS011;3567;52.444;13.556;2023-07-20T00:10:35;6.78;;;6.18;;
7051;SDS011;3567;52.444;13.556;2023-07-20T00:13:00;6.50;;;5.82;;
7051;SDS011;3567;52.444;13.556;2023-07-20T00:15:26;6.97;;;6.35;;
7051;SDS011;3567;52.444;13.556;2023-07-20T00:17:51;6.68;;;6.07;;
7051;SDS011;3567;52.444;13.556;2023-07-20T00:20:16;6.60;;;6.00;;
7051;SDS011;3567;52.444;13.556;2023-07-20T00:22:42;6.40;;;5.85;;
7051;SDS011;3567;52.444;13.556;2023-07-20T00:25:08;8.48;;;6.85;;
7051;SDS011;3567;52.444;13.556;2023-07-20T00:27:34;7.22;;;6.32;;
7051;SDS011;3567;52.444;13.556;2023-07-20T00:29:59;7.38;;;6.63;;
7051;SDS011;3567;52.444;13.556;2023-07-20T00:32:24;7.30;;;6.15;;
7051;SDS011;3567;52.444;13.556;2023-07-20T00:34:50;6.82;;;6.18;;
7051;SDS011;3567;52.444;13.556;2023-07-20T00:37:15;8.35;;;7.53;;
7051;SDS011;3567;52.444;13.556;2023-07-20T00:39:40;7.75;;;7.05;;
7051;SDS011;3567;52.444;13.556;2023-07-20T00:42:06;6.70;;;6.15;;
7051;SDS011;3567;52.444;13.556;2023-07-20T00:44:31;8.50;;;7.68;;
7051;SDS011;3567;52.444;13.556;2023-07-20T00:46:57;8.60;;;7.65;;
7051;SDS011;3567;52.444;13.556;2023-07-20T00:49:22;7.97;;;7.28;;
7051;SDS011;3567;52.444;13.556;2023-07-20T00:51:49;9.43;;;8.52;;
7051;SDS011;3567;52.444;13.556;2023-07-20T00:54:15;8.02;;;7.32;;
7051;SDS011;3567;52.444;13.556;2023-07-20T00:56:41;8.88;;;8.07;;
7051;SDS011;3567;52.444;13.556;2023-07-20T00:59:07;8.52;;;7.40;;
7051;SDS011;3567;52.444;13.556;2023-07-20T01:01:32;8.30;;;7.22;;
7051;SDS011;3567;52.444;13.556;2023-07-20T01:03:58;10.70;;;7.88;;
7051;SDS011;3567;52.444;13.556;2023-07-20T01:06:33;8.20;;;7.40;;
7051;SDS011;3567;52.444;13.556;2023-07-20T01:14:37;9.00;;;8.30;;
7051;SDS011;3567;52.444;13.556;2023-07-20T01:17:03;9.40;;;8.55;;
7051;SDS011;3567;52.444;13.556;2023-07-20T01:19:28;10.68;;;9.57;;
7051;SDS011;3567;52.444;13.556;2023-07-20T01:24:52;10.32;;;9.27;;
7051;SDS011;3567;52.444;13.556;2023-07-20T01:27:47;9.50;;;8.70;;
7051;SDS011;3567;52.444;13.556;2023-07-20T01:32:59;9.95;;;8.98;;
7051;SDS011;3567;52.444;13.556;2023-07-20T01:35:27;10.68;;;9.75;;
7051;SDS011;3567;52.444;13.556;2023-07-20T01:37:54;9.70;;;8.77;;
7051;SDS011;3567;52.444;13.556;2023-07-20T01:40:20;10.70;;;9.68;;
7051;SDS011;3567;52.444;13.556;2023-07-20T01:42:48;10.75;;;9.50;;
7051;SDS011;3567;52.444;13.556;2023-07-20T01:45:14;10.68;;;9.68;;
7051;SDS011;3567;52.444;13.556;2023-07-20T01:47:39;10.65;;;9.65;;
7051;SDS011;3567;52.444;13.556;2023-07-20T01:50:05;10.55;;;9.70;;
7051;SDS011;3567;52.444;13.556;2023-07-20T01:52:31;10.30;;;9.50;;
7051;SDS011;3567;52.444;13.556;2023-07-20T01:54:56;11.15;;;10.02;;
7051;SDS011;3567;52.444;13.556;2023-07-20T01:57:22;11.43;;;9.25;;
7051;SDS011;3567;52.444;13.556;2023-07-20T01:59:47;12.18;;;9.45;;
7051;SDS011;3567;52.444;13.556;2023-07-20T02:02:12;10.88;;;9.88;;
7051;SDS011;3567;52.444;13.556;2023-07-20T02:04:38;11.52;;;10.48;;
7051;SDS011;3567;52.444;13.556;2023-07-20T02:07:03;11.23;;;10.18;;
7051;SDS011;3567;52.444;13.556;2023-07-20T02:09:29;9.52;;;8.65;;
7051;SDS011;3567;52.444;13.556;2023-07-20T02:11:54;10.57;;;9.68;;
7051;SDS011;3567;52.444;13.556;2023-07-20T02:14:20;14.60;;;9.50;;
7051;SDS011;3567;52.444;13.556;2023-07-20T02:16:47;10.73;;;9.88;;
7051;SDS011;3567;52.444;13.556;2023-07-20T02:19:17;10.43;;;9.50;;
7051;SDS011;3567;52.444;13.556;2023-07-20T02:21:43;9.35;;;8.57;;
7051;SDS011;3567;52.444;13.556;2023-07-20T02:24:08;11.18;;;10.32;;
7051;SDS011;3567;52.444;13.556;2023-07-20T02:26:34;11.05;;;10.07;;
7051;SDS011;3567;52.444;13.556;2023-07-20T02:28:59;10.93;;;9.80;;
7051;SDS011;3567;52.444;13.556;2023-07-20T02:31:25;10.05;;;9.23;;
7051;SDS011;3567;52.444;13.556;2023-07-20T02:33:50;10.65;;;9.48;;
7051;SDS011;3567;52.444;13.556;2023-07-20T02:36:15;10.50;;;9.40;;
7051;SDS011;3567;52.444;13.556;2023-07-20T02:38:42;10.70;;;9.85;;
7051;SDS011;3567;52.444;13.556;2023-07-20T02:41:07;10.98;;;10.05;;
7051;SDS011;3567;52.444;13.556;2023-07-20T02:43:33;11.90;;;10.77;;
7051;SDS011;3567;52.444;13.556;2023-07-20T02:45:58;11.85;;;10.70;;
7051;SDS011;3567;52.444;13.556;2023-07-20T02:48:23;12.00;;;10.90;;
7051;SDS011;3567;52.444;13.556;2023-07-20T02:50:49;12.13;;;11.13;;
7051;SDS011;3567;52.444;13.556;2023-07-20T02:53:17;12.68;;;11.43;;
7051;SDS011;3567;52.444;13.556;2023-07-20T02:55:43;12.23;;;11.02;;
7051;SDS011;3567;52.444;13.556;2023-07-20T02:58:08;12.30;;;11.15;;
7051;SDS011;3567;52.444;13.556;2023-07-20T03:00:33;13.18;;;11.88;;
7051;SDS011;3567;52.444;13.556;2023-07-20T03:02:58;12.55;;;11.35;;
7051;SDS011;3567;52.444;13.556;2023-07-20T03:05:24;13.77;;;12.63;;
7051;SDS011;3567;52.444;13.556;2023-07-20T03:07:53;12.98;;;11.85;;
7051;SDS011;3567;52.444;13.556;2023-07-20T03:10:18;13.07;;;11.90;;
7051;SDS011;3567;52.444;13.556;2023-07-20T03:12:44;12.82;;;11.73;;
7051;SDS011;3567;52.444;13.556;2023-07-20T03:15:09;13.43;;;12.23;;
7051;SDS011;3567;52.444;13.556;2023-07-20T03:17:35;13.43;;;12.25;;
7051;SDS011;3567;52.444;13.556;2023-07-20T03:20:00;16.70;;;14.98;;
7051;SDS011;3567;52.444;13.556;2023-07-20T03:22:26;16.98;;;15.02;;
7051;SDS011;3567;52.444;13.556;2023-07-20T03:24:51;17.52;;;15.80;;
7051;SDS011;3567;52.444;13.556;2023-07-20T03:27:17;18.05;;;16.35;;
7051;SDS011;3567;52.444;13.556;2023-07-20T03:29:43;17.92;;;16.13;;
7051;SDS011;3567;52.444;13.556;2023-07-20T03:32:09;19.45;;;17.70;;
7051;SDS011;3567;52.444;13.556;2023-07-20T03:34:35;19.55;;;17.75;;
7051;SDS011;3567;52.444;13.556;2023-07-20T03:37:01;21.08;;;19.08;;
7051;SDS011;3567;52.444;13.556;2023-07-20T03:39:30;20.67;;;18.55;;
7051;SDS011;3567;52.444;13.556;2023-07-20T03:41:55;24.40;;;22.20;;
7051;SDS011;3567;52.444;13.556;2023-07-20T03:44:22;23.88;;;21.70;;
7051;SDS011;3567;52.444;13.556;2023-07-20T03:46:47;25.67;;;23.38;;
7051;SDS011;3567;52.444;13.556;2023-07-20T03:49:13;27.67;;;24.92;;
7051;SDS011;3567;52.444;13.556;2023-07-20T03:51:38;29.30;;;26.27;;
7051;SDS011;3567;52.444;13.556;2023-07-20T03:54:06;28.45;;;25.80;;
7051;SDS011;3567;52.444;13.556;2023-07-20T03:56:32;25.83;;;23.63;;
7051;SDS011;3567;52.444;13.556;2023-07-20T03:59:00;26.20;;;23.60;;
7051;SDS011;3567;52.444;13.556;2023-07-20T04:01:25;23.20;;;21.00;;
7051;SDS011;3567;52.444;13.556;2023-07-20T04:03:51;22.40;;;20.15;;
7051;SDS011;3567;52.444;13.556;2023-07-20T04:06:16;23.33;;;20.85;;
7051;SDS011;3567;52.444;13.556;2023-07-20T04:08:42;22.60;;;20.20;;
7051;SDS011;3567;52.444;13.556;2023-07-20T04:11:08;23.35;;;19.33;;
7051;SDS011;3567;52.444;13.556;2023-07-20T04:13:33;19.63;;;17.50;;
7051;SDS011;3567;52.444;13.556;2023-07-20T04:15:59;20.00;;;18.00;;
7051;SDS011;3567;52.444;13.556;2023-07-20T04:18:25;19.08;;;17.15;;
7051;SDS011;3567;52.444;13.556;2023-07-20T04:20:50;19.10;;;17.23;;
7051;SDS011;3567;52.444;13.556;2023-07-20T04:23:16;17.17;;;15.55;;
7051;SDS011;3567;52.444;13.556;2023-07-20T04:25:42;19.75;;;17.45;;
7051;SDS011;3567;52.444;13.556;2023-07-20T04:28:07;18.98;;;17.17;;
7051;SDS011;3567;52.444;13.556;2023-07-20T04:30:34;17.92;;;16.17;;
7051;SDS011;3567;52.444;13.556;2023-07-20T04:33:01;19.17;;;17.27;;
7051;SDS011;3567;52.444;13.556;2023-07-20T04:35:45;18.38;;;16.60;;
7051;SDS011;3567;52.444;13.556;2023-07-20T04:38:11;19.98;;;18.08;;
7051;SDS011;3567;52.444;13.556;2023-07-20T04:40:36;20.50;;;18.60;;
7051;SDS011;3567;52.444;13.556;2023-07-20T04:43:01;20.15;;;18.42;;
7051;SDS011;3567;52.444;13.556;2023-07-20T04:45:27;20.77;;;17.33;;
7051;SDS011;3567;52.444;13.556;2023-07-20T04:47:52;22.23;;;19.10;;
7051;SDS011;3567;52.444;13.556;2023-07-20T04:50:17;20.48;;;18.55;;
7051;SDS011;3567;52.444;13.556;2023-07-20T04:52:43;22.00;;;19.45;;
7051;SDS011;3567;52.444;13.556;2023-07-20T04:55:08;20.45;;;18.42;;
7051;SDS011;3567;52.444;13.556;2023-07-20T04:57:34;19.08;;;17.17;;
7051;SDS011;3567;52.444;13.556;2023-07-20T04:59:59;18.73;;;16.90;;
7051;SDS011;3567;52.444;13.556;2023-07-20T05:02:24;16.35;;;14.75;;
7051;SDS011;3567;52.444;13.556;2023-07-20T05:04:50;15.27;;;13.75;;
7051;SDS011;3567;52.444;13.556;2023-07-20T05:07:15;15.75;;;14.35;;
7051;SDS011;3567;52.444;13.556;2023-07-20T05:09:43;15.23;;;13.85;;
7051;SDS011;3567;52.444;13.556;2023-07-20T05:12:08;15.00;;;13.65;;
7051;SDS011;3567;52.444;13.556;2023-07-20T05:14:34;15.95;;;14.43;;
7051;SDS011;3567;52.444;13.556;2023-07-20T05:16:59;13.82;;;12.63;;
7051;SDS011;3567;52.444;13.556;2023-07-20T05:19:25;13.75;;;12.55;;
7051;SDS011;3567;52.444;13.556;2023-07-20T05:21:50;12.43;;;11.43;;
7051;SDS011;3567;52.444;13.556;2023-07-20T05:24:16;13.75;;;12.45;;
7051;SDS011;3567;52.444;13.556;2023-07-20T05:26:41;13.77;;;12.55;;
7051;SDS011;3567;52.444;13.556;2023-07-20T05:29:07;13.07;;;11.98;;
7051;SDS011;3567;52.444;13.556;2023-07-20T05:31:32;13.45;;;12.05;;
7051;SDS011;3567;52.444;13.556;2023-07-20T05:33:58;12.95;;;11.70;;
7051;SDS011;3567;52.444;13.556;2023-07-20T05:36:23;12.48;;;11.57;;
7051;SDS011;3567;52.444;13.556;2023-07-20T05:38:49;12.82;;;11.70;;
7051;SDS011;3567;52.444;13.556;2023-07-20T05:41:14;12.18;;;11.07;;
7051;SDS011;3567;52.444;13.556;2023-07-20T05:43:40;11.77;;;10.68;;
7051;SDS011;3567;52.444;13.556;2023-07-20T05:46:07;10.95;;;10.15;;
7051;SDS011;3567;52.444;13.556;2023-07-20T05:48:32;12.77;;;9.75;;
7051;SDS011;3567;52.444;13.556;2023-07-20T05:50:57;11.10;;;10.25;;
7051;SDS011;3567;52.444;13.556;2023-07-20T05:53:23;11.10;;;8.93;;
7051;SDS011;3567;52.444;13.556;2023-07-20T05:55:52;8.88;;;8.18;;
7051;SDS011;3567;52.444;13.556;2023-07-20T05:58:18;9.27;;;8.48;;
7051;SDS011;3567;52.444;13.556;2023-07-20T06:00:47;8.73;;;7.97;;
7051;SDS011;3567;52.444;13.556;2023-07-20T06:03:13;10.13;;;7.80;;
7051;SDS011;3567;52.444;13.556;2023-07-20T06:05:41;6.90;;;6.35;;
7051;SDS011;3567;52.444;13.556;2023-07-20T06:08:10;6.00;;;5.60;;
7051;SDS011;3567;52.444;13.556;2023-07-20T06:10:36;5.10;;;4.80;;
7051;SDS011;3567;52.444;13.556;2023-07-20T06:13:02;5.82;;;5.25;;
7051;SDS011;3567;52.444;13.556;2023-07-20T06:15:36;7.40;;;4.82;;
7051;SDS011;3567;52.444;13.556;2023-07-20T06:18:03;4.60;;;4.30;;
7051;SDS011;3567;52.444;13.556;2023-07-20T06:20:29;4.07;;;3.63;;
7051;SDS011;3567;52.444;13.556;2023-07-20T06:22:54;4.18;;;3.78;;
7051;SDS011;3567;52.444;13.556;2023-07-20T06:25:20;3.20;;;3.00;;
7051;SDS011;3567;52.444;13.556;2023-07-20T06:27:46;6.82;;;3.38;;
7051;SDS011;3567;52.444;13.556;2023-07-20T06:30:11;3.67;;;3.42;;
7051;SDS011;3567;52.444;13.556;2023-07-20T06:32:37;3.50;;;3.20;;
7051;SDS011;3567;52.444;13.556;2023-07-20T06:35:03;3.45;;;3.05;;
7051;SDS011;3567;52.444;13.556;2023-07-20T06:37:29;3.70;;;3.50;;
7051;SDS011;3567;52.444;13.556;2023-07-20T06:39:54;4.40;;;4.10;;
7051;SDS011;3567;52.444;13.556;2023-07-20T06:42:20;5.00;;;4.57;;
7051;SDS011;3567;52.444;13.556;2023-07-20T06:44:45;7.07;;;6.20;;
7051;SDS011;3567;52.444;13.556;2023-07-20T06:47:10;6.60;;;5.43;;
7051;SDS011;3567;52.444;13.556;2023-07-20T06:49:42;7.05;;;6.35;;
7051;SDS011;3567;52.444;13.556;2023-07-20T06:52:14;6.78;;;6.15;;
7051;SDS011;3567;52.444;13.556;2023-07-20T06:54:40;6.97;;;5.85;;
7051;SDS011;3567;52.444;13.556;2023-07-20T06:57:05;8.15;;;5.55;;
7051;SDS011;3567;52.444;13.556;2023-07-20T06:59:34;6.85;;;6.13;;
7051;SDS011;3567;52.444;13.556;2023-07-20T07:01:59;5.22;;;4.82;;
7051;SDS011;3567;52.444;13.556;2023-07-20T07:04:32;5.25;;;4.90;;
7051;SDS011;3567;52.444;13.556;2023-07-20T07:06:58;4.05;;;3.75;;
7051;SDS011;3567;52.444;13.556;2023-07-20T07:09:24;2.88;;;2.67;;
7051;SDS011;3567;52.444;13.556;2023-07-20T07:11:49;2.60;;;2.40;;
7051;SDS011;3567;52.444;13.556;2023-07-20T07:14:15;2.55;;;2.45;;
7051;SDS011;3567;52.444;13.556;2023-07-20T07:16:40;4.18;;;3.17;;
7051;SDS011;3567;52.444;13.556;2023-07-20T07:19:12;3.08;;;2.78;;
7051;SDS011;3567;52.444;13.556;2023-07-20T07:21:37;3.25;;;2.78;;
7051;SDS011;3567;52.444;13.556;2023-07-20T07:24:10;2.30;;;2.10;;
7051;SDS011;3567;52.444;13.556;2023-07-20T07:26:36;5.05;;;3.03;;
7051;SDS011;3567;52.444;13.556;2023-07-20T07:29:02;2.95;;;1.77;;
7051;SDS011;3567;52.444;13.556;2023-07-20T07:31:28;1.13;;;0.90;;
7051;SDS011;3567;52.444;13.556;2023-07-20T07:33:55;1.25;;;0.80;;
7051;SDS011;3567;52.444;13.556;2023-07-20T07:36:21;3.58;;;3.05;;
7051;SDS011;3567;52.444;13.556;2023-07-20T07:39:05;2.33;;;1.30;;
7051;SDS011;3567;52.444;13.556;2023-07-20T07:41:34;1.77;;;1.67;;
7051;SDS011;3567;52.444;13.556;2023-07-20T07:43:59;1.13;;;1.02;;
7051;SDS011;3567;52.444;13.556;2023-07-20T07:46:25;1.15;;;1.05;;
7051;SDS011;3567;52.444;13.556;2023-07-20T07:48:52;1.00;;;0.95;;
7051;SDS011;3567;52.444;13.556;2023-07-20T07:51:18;1.40;;;0.82;;
7051;SDS011;3567;52.444;13.556;2023-07-20T07:53:44;1.95;;;0.90;;
7051;SDS011;3567;52.444;13.556;2023-07-20T07:56:10;1.58;;;1.02;;
7051;SDS011;3567;52.444;13.556;2023-07-20T07:58:36;3.88;;;1.20;;
7051;SDS011;3567;52.444;13.556;2023-07-20T08:01:02;6.68;;;1.20;;
7051;SDS011;3567;52.444;13.556;2023-07-20T08:03:27;2.17;;;1.17;;
7051;SDS011;3567;52.444;13.556;2023-07-20T08:05:56;3.75;;;0.90;;
7051;SDS011;3567;52.444;13.556;2023-07-20T08:08:22;0.98;;;0.73;;
7051;SDS011;3567;52.444;13.556;2023-07-20T08:10:48;0.90;;;0.73;;
7051;SDS011;3567;52.444;13.556;2023-07-20T08:13:16;1.33;;;0.80;;
7051;SDS011;3567;52.444;13.556;2023-07-20T08:15:45;2.53;;;0.80;;
7051;SDS011;3567;52.444;13.556;2023-07-20T08:18:16;1.02;;;0.60;;
7051;SDS011;3567;52.444;13.556;2023-07-20T08:20:45;2.08;;;0.60;;
7051;SDS011;3567;52.444;13.556;2023-07-20T08:23:12;2.05;;;0.60;;
7051;SDS011;3567;52.444;13.556;2023-07-20T08:25:38;0.75;;;0.60;;
7051;SDS011;3567;52.444;13.556;2023-07-20T08:28:07;1.88;;;0.60;;
7051;SDS011;3567;52.444;13.556;2023-07-20T08:30:44;2.25;;;0.47;;
7051;SDS011;3567;52.444;13.556;2023-07-20T08:33:14;0.43;;;0.43;;
7051;SDS011;3567;52.444;13.556;2023-07-20T08:35:41;3.00;;;0.70;;
7051;SDS011;3567;52.444;13.556;2023-07-20T08:38:20;2.20;;;0.30;;
7051;SDS011;3567;52.444;13.556;2023-07-20T08:40:51;0.80;;;0.32;;
7051;SDS011;3567;52.444;13.556;2023-07-20T08:43:50;1.75;;;0.63;;
7051;SDS011;3567;52.444;13.556;2023-07-20T08:46:40;3.17;;;0.70;;
7051;SDS011;3567;52.444;13.556;2023-07-20T08:49:19;0.70;;;0.60;;
7051;SDS011;3567;52.444;13.556;2023-07-20T08:52:10;1.05;;;0.60;;
7051;SDS011;3567;52.444;13.556;2023-07-20T08:54:42;0.60;;;0.50;;
7051;SDS011;3567;52.444;13.556;2023-07-20T08:57:10;1.65;;;0.40;;
7051;SDS011;3567;52.444;13.556;2023-07-20T09:00:10;2.50;;;0.45;;
7051;SDS011;3567;52.444;13.556;2023-07-20T09:02:54;0.38;;;0.30;;
7051;SDS011;3567;52.444;13.556;2023-07-20T09:05:29;2.22;;;0.63;;
7051;SDS011;3567;52.444;13.556;2023-07-20T09:08:02;0.30;;;0.30;;
7051;SDS011;3567;52.444;13.556;2023-07-20T09:10:30;0.30;;;0.30;;
7051;SDS011;3567;52.444;13.556;2023-07-20T09:12:56;0.40;;;0.30;;
7051;SDS011;3567;52.444;13.556;2023-07-20T09:15:30;1.48;;;0.35;;
7051;SDS011;3567;52.444;13.556;2023-07-20T09:18:00;2.05;;;0.82;;
7051;SDS011;3567;52.444;13.556;2023-07-20T09:20:31;0.40;;;0.20;;
7051;SDS011;3567;52.444;13.556;2023-07-20T09:23:07;0.60;;;0.30;;
7051;SDS011;3567;52.444;13.556;2023-07-20T09:25:50;0.32;;;0.30;;
7051;SDS011;3567;52.444;13.556;2023-07-20T09:28:21;0.55;;;0.30;;
7051;SDS011;3567;52.444;13.556;2023-07-20T09:30:46;0.30;;;0.30;;
7051;SDS011;3567;52.444;13.556;2023-07-20T09:33:21;3.72;;;0.20;;
7051;SDS011;3567;52.444;13.556;2023-07-20T09:35:52;0.20;;;0.20;;
7051;SDS011;3567;52.444;13.556;2023-07-20T09:38:17;0.20;;;0.20;;
7051;SDS011;3567;52.444;13.556;2023-07-20T09:40:43;0.20;;;0.20;;
7051;SDS011;3567;52.444;13.556;2023-07-20T09:43:12;1.45;;;0.20;;
7051;SDS011;3567;52.444;13.556;2023-07-20T09:45:44;0.30;;;0.30;;
7051;SDS011;3567;52.444;13.556;2023-07-20T09:48:11;0.35;;;0.30;;
7051;SDS011;3567;52.444;13.556;2023-07-20T09:50:57;0.68;;;0.30;;
7051;SDS011;3567;52.444;13.556;2023-07-20T09:53:26;0.98;;;0.30;;
7051;SDS011;3567;52.444;13.556;2023-07-20T09:55:52;1.35;;;0.22;;
7051;SDS011;3567;52.444;13.556;2023-07-20T09:58:22;0.32;;;0.32;;
7051;SDS011;3567;52.444;13.556;2023-07-20T10:00:59;0.22;;;0.20;;
7051;SDS011;3567;52.444;13.556;2023-07-20T10:03:32;0.20;;;0.20;;
7051;SDS011;3567;52.444;13.556;2023-07-20T10:06:06;0.30;;;0.20;;
7051;SDS011;3567;52.444;13.556;2023-07-20T10:08:34;0.30;;;0.30;;
7051;SDS011;3567;52.444;13.556;2023-07-20T10:11:04;0.20;;;0.20;;
7051;SDS011;3567;52.444;13.556;2023-07-20T10:13:32;0.20;;;0.20;;
7051;SDS011;3567;52.444;13.556;2023-07-20T10:16:17;0.65;;;0.30;;
7051;SDS011;3567;52.444;13.556;2023-07-20T10:19:05;1.80;;;0.20;;
7051;SDS011;3567;52.444;13.556;2023-07-20T10:22:07;1.63;;;0.25;;
7051;SDS011;3567;52.444;13.556;2023-07-20T10:24:39;1.58;;;0.32;;
7051;SDS011;3567;52.444;13.556;2023-07-20T10:27:06;0.40;;;0.30;;
7051;SDS011;3567;52.444;13.556;2023-07-20T10:29:32;1.00;;;0.20;;
7051;SDS011;3567;52.444;13.556;2023-07-20T10:31:59;1.40;;;0.20;;
7051;SDS011;3567;52.444;13.556;2023-07-20T10:34:25;0.40;;;0.40;;
7051;SDS011;3567;52.444;13.556;2023-07-20T10:36:54;0.22;;;0.22;;
7051;SDS011;3567;52.444;13.556;2023-07-20T10:39:23;0.40;;;0.40;;
7051;SDS011;3567;52.444;13.556;2023-07-20T10:42:10;0.40;;;0.40;;
7051;SDS011;3567;52.444;13.556;2023-07-20T10:44:39;0.20;;;0.20;;
7051;SDS011;3567;52.444;13.556;2023-07-20T10:47:12;1.17;;;0.50;;
7051;SDS011;3567;52.444;13.556;2023-07-20T10:52:41;1.35;;;0.57;;
7051;SDS011;3567;52.444;13.556;2023-07-20T10:55:10;0.68;;;0.45;;
7051;SDS011;3567;52.444;13.556;2023-07-20T10:57:39;0.38;;;0.30;;
7051;SDS011;3567;52.444;13.556;2023-07-20T11:00:11;0.30;;;0.30;;
7051;SDS011;3567;52.444;13.556;2023-07-20T11:02:42;0.63;;;0.30;;
7051;SDS011;3567;52.444;13.556;2023-07-20T11:09:03;0.75;;;0.52;;
7051;SDS011;3567;52.444;13.556;2023-07-20T11:11:20;0.30;;;0.30;;
7051;SDS011;3567;52.444;13.556;2023-07-20T11:13:54;0.40;;;0.40;;
7051;SDS011;3567;52.444;13.556;2023-07-20T11:16:39;0.65;;;0.38;;
7051;SDS011;3567;52.444;13.556;2023-07-20T11:19:16;1.23;;;0.43;;
7051;SDS011;3567;52.444;13.556;2023-07-20T11:21:54;1.85;;;0.50;;
7051;SDS011;3567;52.444;13.556;2023-07-20T11:24:22;1.60;;;0.40;;
7051;SDS011;3567;52.444;13.556;2023-07-20T11:26:49;0.63;;;0.60;;
7051;SDS011;3567;52.444;13.556;2023-07-20T11:29:15;2.45;;;0.35;;
7051;SDS011;3567;52.444;13.556;2023-07-20T11:31:45;0.98;;;0.40;;
7051;SDS011;3567;52.444;13.556;2023-07-20T11:34:16;1.65;;;0.30;;
7051;SDS011;3567;52.444;13.556;2023-07-20T11:36:49;0.98;;;0.40;;
7051;SDS011;3567;52.444;13.556;2023-07-20T11:39:16;0.57;;;0.25;;
7051;SDS011;3567;52.444;13.556;2023-07-20T11:41:53;2.33;;;0.30;;
7051;SDS011;3567;52.444;13.556;2023-07-20T11:44:23;0.63;;;0.30;;
7051;SDS011;3567;52.444;13.556;2023-07-20T11:47:00;0.28;;;0.28;;
7051;SDS011;3567;52.444;13.556;2023-07-20T11:49:28;0.50;;;0.47;;
7051;SDS011;3567;52.444;13.556;2023-07-20T11:52:01;0.32;;;0.30;;
7051;SDS011;3567;52.444;13.556;2023-07-20T11:54:34;0.80;;;0.50;;
7051;SDS011;3567;52.444;13.556;2023-07-20T11:57:00;1.13;;;0.50;;
7051;SDS011;3567;52.444;13.556;2023-07-20T11:59:31;1.52;;;0.50;;
7051;SDS011;3567;52.444;13.556;2023-07-20T12:02:09;1.52;;;0.35;;
7051;SDS011;3567;52.444;13.556;2023-07-20T12:04:43;1.65;;;0.60;;
7051;SDS011;3567;52.444;13.556;2023-07-20T12:07:08;2.35;;;0.40;;
7051;SDS011;3567;52.444;13.556;2023-07-20T12:09:33;1.40;;;0.35;;
7051;SDS011;3567;52.444;13.556;2023-07-20T12:11:59;3.00;;;0.32;;
7051;SDS011;3567;52.444;13.556;2023-07-20T12:14:36;1.58;;;0.32;;
7051;SDS011;3567;52.444;13.556;2023-07-20T12:17:04;0.85;;;0.30;;
7051;SDS011;3567;52.444;13.556;2023-07-20T12:19:37;0.40;;;0.40;;
7051;SDS011;3567;52.444;13.556;2023-07-20T12:22:14;0.20;;;0.20;;
7051;SDS011;3567;52.444;13.556;2023-07-20T12:24:40;0.30;;;0.30;;
7051;SDS011;3567;52.444;13.556;2023-07-20T12:27:05;0.30;;;0.20;;
7051;SDS011;3567;52.444;13.556;2023-07-20T12:29:31;4.85;;;0.30;;
7051;SDS011;3567;52.444;13.556;2023-07-20T12:32:10;0.20;;;0.20;;
7051;SDS011;3567;52.444;13.556;2023-07-20T12:34:35;0.40;;;0.30;;
7051;SDS011;3567;52.444;13.556;2023-07-20T12:37:02;2.40;;;0.20;;
7051;SDS011;3567;52.444;13.556;2023-07-20T12:39:28;0.20;;;0.10;;
7051;SDS011;3567;52.444;13.556;2023-07-20T12:42:05;1.33;;;0.28;;
7051;SDS011;3567;52.444;13.556;2023-07-20T12:44:36;0.25;;;0.20;;
7051;SDS011;3567;52.444;13.556;2023-07-20T12:47:05;0.88;;;0.30;;
7051;SDS011;3567;52.444;13.556;2023-07-20T12:49:30;1.60;;;0.20;;
7051;SDS011;3567;52.444;13.556;2023-07-20T12:52:02;0.52;;;0.25;;
7051;SDS011;3567;52.444;13.556;2023-07-20T12:54:38;0.35;;;0.30;;
7051;SDS011;3567;52.444;13.556;2023-07-20T12:57:12;0.68;;;0.30;;
7051;SDS011;3567;52.444;13.556;2023-07-20T13:00:23;0.30;;;0.30;;
7051;SDS011;3567;52.444;13.556;2023-07-20T13:03:01;0.32;;;0.30;;
7051;SDS011;3567;52.444;13.556;2023-07-20T13:05:38;0.35;;;0.28;;
7051;SDS011;3567;52.444;13.556;2023-07-20T13:08:15;2.63;;;0.40;;
7051;SDS011;3567;52.444;13.556;2023-07-20T13:10:50;0.30;;;0.30;;
7051;SDS011;3567;52.444;13.556;2023-07-20T13:13:16;0.30;;;0.10;;
7051;SDS011;3567;52.444;13.556;2023-07-20T13:15:43;1.65;;;0.20;;
7051;SDS011;3567;52.444;13.556;2023-07-20T13:18:12;1.42;;;0.20;;
7051;SDS011;3567;52.444;13.556;2023-07-20T13:20:38;0.32;;;0.20;;
7051;SDS011;3567;52.444;13.556;2023-07-20T13:23:06;0.43;;;0.30;;
7051;SDS011;3567;52.444;13.556;2023-07-20T13:25:37;0.22;;;0.20;;
7051;SDS011;3567;52.444;13.556;2023-07-20T13:28:10;0.47;;;0.20;;
7051;SDS011;3567;52.444;13.556;2023-07-20T13:30:36;0.30;;;0.30;;
7051;SDS011;3567;52.444;13.556;2023-07-20T13:33:13;0.70;;;0.30;;
7051;SDS011;3567;52.444;13.556;2023-07-20T13:35:41;0.28;;;0.20;;
7051;SDS011;3567;52.444;13.556;2023-07-20T13:38:07;0.65;;;0.20;;
7051;SDS011;3567;52.444;13.556;2023-07-20T13:40:32;0.20;;;0.20;;
7051;SDS011;3567;52.444;13.556;2023-07-20T13:43:00;0.68;;;0.20;;
7051;SDS011;3567;52.444;13.556;2023-07-20T13:45:29;2.92;;;0.30;;
7051;SDS011;3567;52.444;13.556;2023-07-20T13:47:55;0.65;;;0.30;;
7051;SDS011;3567;52.444;13.556;2023-07-20T13:50:24;0.30;;;0.30;;
7051;SDS011;3567;52.444;13.556;2023-07-20T13:52:49;0.30;;;0.30;;
7051;SDS011;3567;52.444;13.556;2023-07-20T13:55:14;0.57;;;0.30;;
7051;SDS011;3567;52.444;13.556;2023-07-20T13:57:40;0.40;;;0.20;;
7051;SDS011;3567;52.444;13.556;2023-07-20T14:00:05;0.63;;;0.20;;
7051;SDS011;3567;52.444;13.556;2023-07-20T14:02:34;0.20;;;0.20;;
7051;SDS011;3567;52.444;13.556;2023-07-20T14:04:59;1.25;;;0.20;;
7051;SDS011;3567;52.444;13.556;2023-07-20T14:07:25;0.20;;;0.20;;
7051;SDS011;3567;52.444;13.556;2023-07-20T14:09:50;0.28;;;0.20;;
7051;SDS011;3567;52.444;13.556;2023-07-20T14:12:15;0.10;;;0.10;;
7051;SDS011;3567;52.444;13.556;2023-07-20T14:14:41;0.20;;;0.20;;
7051;SDS011;3567;52.444;13.556;2023-07-20T14:17:20;0.20;;;0.20;;
7051;SDS011;3567;52.444;13.556;2023-07-20T14:19:48;0.20;;;0.20;;
7051;SDS011;3567;52.444;13.556;2023-07-20T14:22:16;0.20;;;0.20;;
7051;SDS011;3567;52.444;13.556;2023-07-20T14:24:48;0.35;;;0.30;;
7051;SDS011;3567;52.444;13.556;2023-07-20T14:27:19;1.73;;;0.40;;
7051;SDS011;3567;52.444;13.556;2023-07-20T14:29:44;3.47;;;0.30;;
7051;SDS011;3567;52.444;13.556;2023-07-20T14:32:12;0.57;;;0.20;;
7051;SDS011;3567;52.444;13.556;2023-07-20T14:34:40;0.15;;;0.15;;
7051;SDS011;3567;52.444;13.556;2023-07-20T14:37:07;0.30;;;0.30;;
7051;SDS011;3567;52.444;13.556;2023-07-20T14:39:33;1.02;;;0.20;;
7051;SDS011;3567;52.444;13.556;2023-07-20T14:41:58;0.20;;;0.20;;
7051;SDS011;3567;52.444;13.556;2023-07-20T14:44:28;0.30;;;0.30;;
7051;SDS011;3567;52.444;13.556;2023-07-20T14:46:57;1.25;;;0.30;;
7051;SDS011;3567;52.444;13.556;2023-07-20T14:49:22;0.17;;;0.17;;
7051;SDS011;3567;52.444;13.556;2023-07-20T14:51:48;0.52;;;0.30;;
7051;SDS011;3567;52.444;13.556;2023-07-20T14:54:14;0.25;;;0.25;;
7051;SDS011;3567;52.444;13.556;2023-07-20T14:56:47;0.93;;;0.30;;
7051;SDS011;3567;52.444;13.556;2023-07-20T14:59:15;0.30;;;0.30;;
7051;SDS011;3567;52.444;13.556;2023-07-20T15:01:43;0.30;;;0.30;;
7051;SDS011;3567;52.444;13.556;2023-07-20T15:04:12;1.55;;;0.30;;
7051;SDS011;3567;52.444;13.556;2023-07-20T15:06:39;0.63;;;0.35;;
7051;SDS011;3567;52.444;13.556;2023-07-20T15:09:08;0.20;;;0.20;;
7051;SDS011;3567;52.444;13.556;2023-07-20T15:11:34;3.45;;;0.30;;
7051;SDS011;3567;52.444;13.556;2023-07-20T15:14:01;0.30;;;0.30;;
7051;SDS011;3567;52.444;13.556;2023-07-20T15:16:26;0.55;;;0.30;;
7051;SDS011;3567;52.444;13.556;2023-07-20T15:18:52;0.70;;;0.30;;
7051;SDS011;3567;52.444;13.556;2023-07-20T15:21:17;1.33;;;0.30;;